createdAt,value
2022-10-11T04:01:49.509Z,13.90
2022-10-11T04:04:51.997Z,13.90
2022-10-11T04:07:54.029Z,13.49
2022-10-11T04:10:56.337Z,13.54
2022-10-11T04:13:58.575Z,13.65
2022-10-11T04:17:00.866Z,13.78
2022-10-11T04:20:03.195Z,13.84
2022-10-11T04:23:05.591Z,13.88
2022-10-11T04:26:09.181Z,13.93
2022-10-11T04:29:11.828Z,13.84
2022-10-11T04:32:13.866Z,13.89
2022-10-11T04:35:16.305Z,13.93
2022-10-11T04:38:18.331Z,13.87
2022-10-11T04:41:20.626Z,13.88
2022-10-11T04:44:22.702Z,13.81
2022-10-11T04:47:25.137Z,13.77
2022-10-11T04:50:27.209Z,13.89
2022-10-11T04:53:32.606Z,13.88
2022-10-11T04:56:34.652Z,13.92
2022-10-11T04:59:36.983Z,14.04
2022-10-11T05:02:39.042Z,14.02
2022-10-11T05:05:41.354Z,14.06
2022-10-11T05:08:43.415Z,14.12
2022-10-11T05:11:45.769Z,14.08
2022-10-11T05:14:47.837Z,14.17
2022-10-11T05:17:50.127Z,14.27
2022-10-11T05:21:19.723Z,14.22
2022-10-11T05:24:22.021Z,14.27
2022-10-11T05:27:24.046Z,14.28
2022-10-11T05:30:26.487Z,14.29
2022-10-11T05:33:28.544Z,14.36
2022-10-11T05:36:31.091Z,14.29
2022-10-11T05:39:33.103Z,14.32
2022-10-11T05:42:35.388Z,14.40
2022-10-11T05:45:39.114Z,14.37
2022-10-11T05:48:41.410Z,14.38
2022-10-11T05:51:44.158Z,14.41
2022-10-11T05:54:46.446Z,14.51
2022-10-11T05:57:48.485Z,14.52
2022-10-11T06:00:50.878Z,14.54
2022-10-11T06:03:53.674Z,14.54
2022-10-11T06:06:55.726Z,14.61
2022-10-11T06:09:58.033Z,14.74
2022-10-11T06:13:00.184Z,14.71
2022-10-11T06:16:06.544Z,14.79
2022-10-11T06:19:09.230Z,14.77
2022-10-11T06:22:12.359Z,14.76
2022-10-11T06:25:14.422Z,14.76
2022-10-11T06:28:16.780Z,14.83
2022-10-11T06:31:18.838Z,14.91
2022-10-11T06:34:21.461Z,14.95
2022-10-11T06:37:23.472Z,15.07
2022-10-11T06:40:25.782Z,14.99
2022-10-11T06:43:28.003Z,14.96
2022-10-11T06:46:31.584Z,15.04
2022-10-11T06:49:33.998Z,15.10
2022-10-11T06:52:36.690Z,15.07
2022-10-11T06:55:39.584Z,15.07
2022-10-11T06:58:42.012Z,15.01
2022-10-11T07:01:44.181Z,15.03
2022-10-11T07:04:46.532Z,15.12
2022-10-11T07:07:48.566Z,15.15
2022-10-11T07:10:51.504Z,15.13
2022-10-11T07:13:59.318Z,14.97
2022-10-11T07:17:01.616Z,14.92
2022-10-11T07:20:04.206Z,14.98
2022-10-11T07:23:06.518Z,15.06
2022-10-11T07:26:10.512Z,15.21
2022-10-11T07:29:13.108Z,15.23
2022-10-11T07:32:16.415Z,15.32
2022-10-11T07:35:18.904Z,15.41
2022-10-11T07:38:20.941Z,15.62
2022-10-11T07:41:24.060Z,15.67
2022-10-11T07:44:26.329Z,15.74
2022-10-11T07:47:28.783Z,15.80
2022-10-11T07:50:31.020Z,15.90
2022-10-11T07:53:44.796Z,15.88
2022-10-11T07:56:46.830Z,16.05
2022-10-11T07:59:50.362Z,15.96
2022-10-11T08:02:52.569Z,15.96
2022-10-11T08:06:00.260Z,16.01
2022-10-11T08:09:02.707Z,15.96
2022-10-11T08:12:05.101Z,16.07
2022-10-11T08:15:07.512Z,15.97
2022-10-11T08:18:09.811Z,16.08
2022-10-11T08:21:13.898Z,16.11
2022-10-11T08:24:20.617Z,16.07
2022-10-11T08:27:22.694Z,16.12
2022-10-11T08:30:25.115Z,16.15
2022-10-11T08:33:27.293Z,16.26
2022-10-11T08:36:29.606Z,16.36
2022-10-11T08:39:32.214Z,16.40
2022-10-11T08:42:45.482Z,16.49
2022-10-11T08:45:52.501Z,16.59
2022-10-11T08:48:55.303Z,16.62
2022-10-11T08:52:02.584Z,16.66
2022-10-11T08:55:08.240Z,16.76
2022-10-11T08:58:15.094Z,16.79
2022-10-11T09:01:22.309Z,16.84
2022-10-11T09:04:24.413Z,16.92
2022-10-11T09:07:44.750Z,16.88
2022-10-11T09:11:35.006Z,16.89
2022-10-11T09:14:55.389Z,16.90
2022-10-11T09:18:19.167Z,16.95
2022-10-11T09:22:12.906Z,16.99
2022-10-11T09:25:55.897Z,17.03
2022-10-11T09:29:16.888Z,17.10
2022-10-11T09:32:23.918Z,17.12
2022-10-11T09:35:31.928Z,17.17
2022-10-11T09:38:41.930Z,17.20
2022-10-11T09:42:07.729Z,17.30
2022-10-11T09:45:21.057Z,17.27
2022-10-11T09:48:27.482Z,17.38
2022-10-11T09:51:29.995Z,17.42
2022-10-11T09:54:43.561Z,17.49
2022-10-11T09:57:54.998Z,17.58
2022-10-11T10:01:11.833Z,17.49
2022-10-11T10:04:19.294Z,17.56
2022-10-11T10:07:22.790Z,17.60
2022-10-11T10:10:27.210Z,17.73
2022-10-11T10:13:40.718Z,17.66
2022-10-11T10:16:43.215Z,17.69
2022-10-11T10:19:52.053Z,17.83
2022-10-11T10:22:54.491Z,17.82
2022-10-11T10:26:13.652Z,17.93
2022-10-11T10:29:18.516Z,17.99
2022-10-11T10:32:28.118Z,18.00
2022-10-11T10:35:52.082Z,18.06
2022-10-11T10:39:01.564Z,18.13
2022-10-11T10:42:11.257Z,18.08
2022-10-11T10:45:21.390Z,18.05
2022-10-11T10:49:01.981Z,18.04
2022-10-11T10:52:05.286Z,18.05
2022-10-11T10:55:22.834Z,18.14
2022-10-11T10:58:47.891Z,18.23
2022-10-11T11:02:35.486Z,18.35
2022-10-11T11:05:45.692Z,18.27
2022-10-11T11:08:48.429Z,18.25
2022-10-11T11:12:07.560Z,18.28
2022-10-11T11:15:32.520Z,18.35
2022-10-11T11:19:23.982Z,18.35
2022-10-11T11:22:42.904Z,18.37
2022-10-11T11:26:07.807Z,18.37
2022-10-11T11:29:36.617Z,18.42
2022-10-11T11:32:45.545Z,18.42
2022-10-11T11:35:55.585Z,18.42
2022-10-11T11:39:01.849Z,18.43
2022-10-11T11:42:13.629Z,18.49
2022-10-11T11:45:23.560Z,18.56
2022-10-11T11:48:26.558Z,18.66
2022-10-11T11:51:33.937Z,18.70
2022-10-11T11:54:48.419Z,18.65
2022-10-11T11:58:29.327Z,18.69
2022-10-11T12:02:29.318Z,18.73
2022-10-11T12:05:36.281Z,18.83
2022-10-11T12:08:42.054Z,18.92
2022-10-11T12:12:07.045Z,18.81
2022-10-11T12:15:09.081Z,18.86
2022-10-11T12:18:16.871Z,18.86
2022-10-11T12:21:35.015Z,18.85
2022-10-11T12:24:55.432Z,18.95
2022-10-11T12:28:00.246Z,18.98
2022-10-11T12:31:17.249Z,18.95
2022-10-11T12:34:35.834Z,18.96
2022-10-11T12:38:04.485Z,18.98
2022-10-11T12:41:09.282Z,18.99
2022-10-11T12:44:30.893Z,19.03
2022-10-11T12:47:55.472Z,19.02
2022-10-11T12:51:16.269Z,19.03
2022-10-11T12:54:30.036Z,19.10
2022-10-11T12:58:07.471Z,19.18
2022-10-11T13:01:14.097Z,19.23
2022-10-11T13:04:20.456Z,19.22
2022-10-11T13:07:23.610Z,19.25
2022-10-11T13:10:35.799Z,19.22
2022-10-11T13:14:14.863Z,19.28
2022-10-11T13:17:21.905Z,19.27
2022-10-11T13:20:26.189Z,19.21
2022-10-11T13:23:34.775Z,19.13
2022-10-11T13:26:38.878Z,19.18
2022-10-11T13:29:44.909Z,19.04
2022-10-11T13:32:47.600Z,18.98
2022-10-11T13:35:51.079Z,18.93
2022-10-11T13:38:59.510Z,18.95
2022-10-11T13:42:06.009Z,18.88
2022-10-11T13:45:16.945Z,18.88
2022-10-11T13:48:19.272Z,18.85
2022-10-11T13:51:35.983Z,18.82
2022-10-11T13:55:03.631Z,18.76
2022-10-11T13:58:35.663Z,18.76
2022-10-11T14:01:40.437Z,18.79
2022-10-11T14:04:42.847Z,18.85
2022-10-11T14:07:47.851Z,18.90
2022-10-11T14:10:56.379Z,18.92
2022-10-11T14:13:59.411Z,18.92
2022-10-11T14:17:05.873Z,18.96
2022-10-11T14:20:30.802Z,18.96
2022-10-11T14:23:35.340Z,19.00
2022-10-11T14:26:52.889Z,18.96
2022-10-11T14:30:20.343Z,18.98
2022-10-11T14:33:25.876Z,18.93
2022-10-11T14:36:28.228Z,18.89
2022-10-11T14:39:31.996Z,18.85
2022-10-11T14:42:34.283Z,18.86
2022-10-11T14:45:37.140Z,18.85
2022-10-11T14:48:56.200Z,18.78
2022-10-11T14:51:59.076Z,18.77
2022-10-11T14:55:01.849Z,18.74
2022-10-11T14:58:04.935Z,18.69
2022-10-11T15:01:10.522Z,18.69
2022-10-11T15:04:13.367Z,18.68
2022-10-11T15:07:15.660Z,18.68
2022-10-11T15:10:23.493Z,18.67
2022-10-11T15:13:25.878Z,18.65
2022-10-11T15:16:27.943Z,18.67
2022-10-11T15:19:30.238Z,18.68
2022-10-11T15:22:32.271Z,18.67
2022-10-11T15:25:34.953Z,18.62
2022-10-11T15:28:37.124Z,18.55
2022-10-11T15:31:39.565Z,18.53
2022-10-11T15:34:41.589Z,18.48
2022-10-11T15:37:44.352Z,18.44
2022-10-11T15:40:47.945Z,18.44
2022-10-11T15:43:50.626Z,18.41
